sensor_id;sensor_type;location;lat;lon;timestamp;P1;durP1;ratioP1;P2;durP2;ratioP2
84189;SDS011;74321;53.406;8.146;2024-03-08T00:03:49;41.17;;;16.38;;
84189;SDS011;74321;53.406;8.146;2024-03-08T00:08:51;37.63;;;15.95;;
84189;SDS011;74321;53.406;8.146;2024-03-08T00:13:53;41.67;;;16.23;;
84189;SDS011;74321;53.406;8.146;2024-03-08T00:18:55;34.03;;;15.48;;
84189;SDS011;74321;53.406;8.146;2024-03-08T00:23:57;37.65;;;15.93;;
84189;SDS011;74321;53.406;8.146;2024-03-08T00:28:59;32.70;;;14.25;;
84189;SDS011;74321;53.406;8.146;2024-03-08T00:34:01;34.45;;;12.90;;
84189;SDS011;74321;53.406;8.146;2024-03-08T00:39:04;43.22;;;15.40;;
84189;SDS011;74321;53.406;8.146;2024-03-08T00:44:08;39.65;;;15.18;;
84189;SDS011;74321;53.406;8.146;2024-03-08T00:49:11;37.45;;;15.50;;
84189;SDS011;74321;53.406;8.146;2024-03-08T00:54:14;38.40;;;16.85;;
84189;SDS011;74321;53.406;8.146;2024-03-08T00:59:16;33.08;;;15.20;;
84189;SDS011;74321;53.406;8.146;2024-03-08T01:04:18;31.67;;;14.27;;
84189;SDS011;74321;53.406;8.146;2024-03-08T01:09:22;38.15;;;15.65;;
84189;SDS011;74321;53.406;8.146;2024-03-08T01:14:25;39.92;;;15.57;;
84189;SDS011;74321;53.406;8.146;2024-03-08T01:19:33;35.75;;;15.63;;
84189;SDS011;74321;53.406;8.146;2024-03-08T01:24:35;35.15;;;15.45;;
84189;SDS011;74321;53.406;8.146;2024-03-08T01:29:37;37.30;;;16.35;;
84189;SDS011;74321;53.406;8.146;2024-03-08T01:34:39;33.60;;;15.23;;
84189;SDS011;74321;53.406;8.146;2024-03-08T01:39:41;40.53;;;16.67;;
84189;SDS011;74321;53.406;8.146;2024-03-08T01:44:44;37.28;;;16.02;;
84189;SDS011;74321;53.406;8.146;2024-03-08T01:49:46;39.88;;;16.50;;
84189;SDS011;74321;53.406;8.146;2024-03-08T01:54:48;35.75;;;15.55;;
84189;SDS011;74321;53.406;8.146;2024-03-08T01:59:50;38.20;;;16.75;;
84189;SDS011;74321;53.406;8.146;2024-03-08T02:04:52;37.55;;;15.45;;
84189;SDS011;74321;53.406;8.146;2024-03-08T02:09:54;32.20;;;13.70;;
84189;SDS011;74321;53.406;8.146;2024-03-08T02:14:56;36.88;;;14.95;;
84189;SDS011;74321;53.406;8.146;2024-03-08T02:19:59;39.42;;;16.00;;
84189;SDS011;74321;53.406;8.146;2024-03-08T02:25:03;39.65;;;16.13;;
84189;SDS011;74321;53.406;8.146;2024-03-08T02:30:07;32.90;;;13.80;;
84189;SDS011;74321;53.406;8.146;2024-03-08T02:35:09;30.13;;;13.50;;
84189;SDS011;74321;53.406;8.146;2024-03-08T02:40:11;35.85;;;14.10;;
84189;SDS011;74321;53.406;8.146;2024-03-08T02:45:14;35.75;;;15.55;;
84189;SDS011;74321;53.406;8.146;2024-03-08T02:50:16;35.78;;;14.00;;
84189;SDS011;74321;53.406;8.146;2024-03-08T02:55:18;35.00;;;14.43;;
84189;SDS011;74321;53.406;8.146;2024-03-08T03:00:21;33.17;;;13.52;;
84189;SDS011;74321;53.406;8.146;2024-03-08T03:05:28;35.72;;;14.60;;
84189;SDS011;74321;53.406;8.146;2024-03-08T03:10:31;38.08;;;14.57;;
84189;SDS011;74321;53.406;8.146;2024-03-08T03:15:33;37.25;;;13.88;;
84189;SDS011;74321;53.406;8.146;2024-03-08T03:20:35;36.13;;;13.65;;
84189;SDS011;74321;53.406;8.146;2024-03-08T03:25:45;41.05;;;15.95;;
84189;SDS011;74321;53.406;8.146;2024-03-08T03:30:47;45.92;;;16.67;;
84189;SDS011;74321;53.406;8.146;2024-03-08T03:35:49;42.33;;;15.68;;
84189;SDS011;74321;53.406;8.146;2024-03-08T03:40:53;42.20;;;15.75;;
84189;SDS011;74321;53.406;8.146;2024-03-08T03:45:58;44.38;;;16.35;;
84189;SDS011;74321;53.406;8.146;2024-03-08T03:51:00;53.47;;;19.38;;
84189;SDS011;74321;53.406;8.146;2024-03-08T03:56:03;36.72;;;16.17;;
84189;SDS011;74321;53.406;8.146;2024-03-08T04:01:11;33.75;;;14.93;;
84189;SDS011;74321;53.406;8.146;2024-03-08T04:06:13;40.53;;;15.63;;
84189;SDS011;74321;53.406;8.146;2024-03-08T04:11:16;48.05;;;17.42;;
84189;SDS011;74321;53.406;8.146;2024-03-08T04:16:18;42.13;;;15.85;;
84189;SDS011;74321;53.406;8.146;2024-03-08T04:21:20;41.30;;;15.20;;
84189;SDS011;74321;53.406;8.146;2024-03-08T04:26:22;40.47;;;14.45;;
84189;SDS011;74321;53.406;8.146;2024-03-08T04:31:24;45.78;;;16.27;;
84189;SDS011;74321;53.406;8.146;2024-03-08T04:36:28;32.53;;;12.77;;
84189;SDS011;74321;53.406;8.146;2024-03-08T04:41:30;36.85;;;15.57;;
84189;SDS011;74321;53.406;8.146;2024-03-08T04:46:32;39.88;;;15.23;;
84189;SDS011;74321;53.406;8.146;2024-03-08T04:51:34;35.47;;;14.18;;
84189;SDS011;74321;53.406;8.146;2024-03-08T04:56:36;38.75;;;15.68;;
84189;SDS011;74321;53.406;8.146;2024-03-08T05:01:38;43.72;;;15.98;;
84189;SDS011;74321;53.406;8.146;2024-03-08T05:06:40;41.40;;;15.63;;
84189;SDS011;74321;53.406;8.146;2024-03-08T05:11:43;40.70;;;14.30;;
84189;SDS011;74321;53.406;8.146;2024-03-08T05:16:52;40.10;;;14.95;;
84189;SDS011;74321;53.406;8.146;2024-03-08T05:21:54;40.90;;;16.60;;
84189;SDS011;74321;53.406;8.146;2024-03-08T05:26:56;38.38;;;14.40;;
84189;SDS011;74321;53.406;8.146;2024-03-08T05:31:58;37.92;;;15.50;;
84189;SDS011;74321;53.406;8.146;2024-03-08T05:37:01;31.05;;;12.85;;
84189;SDS011;74321;53.406;8.146;2024-03-08T05:42:03;43.65;;;15.73;;
84189;SDS011;74321;53.406;8.146;2024-03-08T05:47:06;36.67;;;15.18;;
84189;SDS011;74321;53.406;8.146;2024-03-08T05:52:08;39.42;;;14.80;;
84189;SDS011;74321;53.406;8.146;2024-03-08T05:57:11;38.45;;;14.93;;
84189;SDS011;74321;53.406;8.146;2024-03-08T06:02:13;33.85;;;13.05;;
84189;SDS011;74321;53.406;8.146;2024-03-08T06:07:20;43.15;;;15.68;;
84189;SDS011;74321;53.406;8.146;2024-03-08T06:12:22;39.50;;;15.95;;
84189;SDS011;74321;53.406;8.146;2024-03-08T06:17:26;37.17;;;15.88;;
84189;SDS011;74321;53.406;8.146;2024-03-08T06:22:28;32.92;;;14.60;;
84189;SDS011;74321;53.406;8.146;2024-03-08T06:27:32;38.25;;;16.73;;
84189;SDS011;74321;53.406;8.146;2024-03-08T06:32:36;37.90;;;15.35;;
84189;SDS011;74321;53.406;8.146;2024-03-08T06:37:38;43.72;;;15.55;;
84189;SDS011;74321;53.406;8.146;2024-03-08T06:42:41;41.50;;;16.02;;
84189;SDS011;74321;53.406;8.146;2024-03-08T06:47:43;31.40;;;13.35;;
84189;SDS011;74321;53.406;8.146;2024-03-08T06:52:47;37.78;;;14.05;;
84189;SDS011;74321;53.406;8.146;2024-03-08T06:57:55;34.75;;;13.27;;
84189;SDS011;74321;53.406;8.146;2024-03-08T07:02:57;45.95;;;16.38;;
84189;SDS011;74321;53.406;8.146;2024-03-08T07:08:05;38.92;;;16.05;;
84189;SDS011;74321;53.406;8.146;2024-03-08T07:13:08;35.95;;;14.13;;
84189;SDS011;74321;53.406;8.146;2024-03-08T07:18:12;36.05;;;14.20;;
84189;SDS011;74321;53.406;8.146;2024-03-08T07:23:17;37.90;;;16.17;;
84189;SDS011;74321;53.406;8.146;2024-03-08T07:28:38;41.38;;;16.27;;
84189;SDS011;74321;53.406;8.146;2024-03-08T07:33:41;30.08;;;12.23;;
84189;SDS011;74321;53.406;8.146;2024-03-08T07:38:45;39.85;;;13.88;;
84189;SDS011;74321;53.406;8.146;2024-03-08T07:43:48;34.75;;;14.10;;
84189;SDS011;74321;53.406;8.146;2024-03-08T07:48:51;33.88;;;15.15;;
84189;SDS011;74321;53.406;8.146;2024-03-08T07:53:54;32.50;;;13.57;;
84189;SDS011;74321;53.406;8.146;2024-03-08T07:58:56;31.88;;;14.07;;
84189;SDS011;74321;53.406;8.146;2024-03-08T08:04:00;30.10;;;13.55;;
84189;SDS011;74321;53.406;8.146;2024-03-08T08:09:03;31.13;;;12.43;;
84189;SDS011;74321;53.406;8.146;2024-03-08T08:14:06;29.92;;;14.00;;
84189;SDS011;74321;53.406;8.146;2024-03-08T08:19:11;25.63;;;11.82;;
84189;SDS011;74321;53.406;8.146;2024-03-08T08:24:19;36.38;;;14.90;;
84189;SDS011;74321;53.406;8.146;2024-03-08T08:29:24;30.33;;;13.13;;
84189;SDS011;74321;53.406;8.146;2024-03-08T08:34:27;26.88;;;13.10;;
84189;SDS011;74321;53.406;8.146;2024-03-08T08:39:29;25.80;;;11.55;;
84189;SDS011;74321;53.406;8.146;2024-03-08T08:44:32;19.60;;;10.93;;
84189;SDS011;74321;53.406;8.146;2024-03-08T08:49:34;27.67;;;12.90;;
84189;SDS011;74321;53.406;8.146;2024-03-08T08:54:37;23.75;;;11.57;;
84189;SDS011;74321;53.406;8.146;2024-03-08T08:59:40;23.85;;;12.13;;
84189;SDS011;74321;53.406;8.146;2024-03-08T09:04:44;24.83;;;12.50;;
84189;SDS011;74321;53.406;8.146;2024-03-08T09:09:46;29.40;;;11.88;;
84189;SDS011;74321;53.406;8.146;2024-03-08T09:14:49;23.63;;;11.93;;
84189;SDS011;74321;53.406;8.146;2024-03-08T09:19:52;18.95;;;10.25;;
84189;SDS011;74321;53.406;8.146;2024-03-08T09:24:56;23.90;;;12.35;;
84189;SDS011;74321;53.406;8.146;2024-03-08T09:29:59;24.73;;;13.02;;
84189;SDS011;74321;53.406;8.146;2024-03-08T09:35:02;26.58;;;10.90;;
84189;SDS011;74321;53.406;8.146;2024-03-08T09:40:05;23.40;;;12.73;;
84189;SDS011;74321;53.406;8.146;2024-03-08T09:45:12;26.77;;;13.20;;
84189;SDS011;74321;53.406;8.146;2024-03-08T09:50:17;21.40;;;11.35;;
84189;SDS011;74321;53.406;8.146;2024-03-08T09:55:20;26.20;;;13.25;;
84189;SDS011;74321;53.406;8.146;2024-03-08T10:00:24;23.27;;;12.82;;
84189;SDS011;74321;53.406;8.146;2024-03-08T10:05:27;22.95;;;12.43;;
84189;SDS011;74321;53.406;8.146;2024-03-08T10:10:30;18.10;;;11.18;;
84189;SDS011;74321;53.406;8.146;2024-03-08T10:15:32;19.52;;;11.10;;
84189;SDS011;74321;53.406;8.146;2024-03-08T10:20:35;23.60;;;12.88;;
84189;SDS011;74321;53.406;8.146;2024-03-08T10:25:38;21.75;;;13.07;;
84189;SDS011;74321;53.406;8.146;2024-03-08T10:30:46;23.63;;;12.55;;
84189;SDS011;74321;53.406;8.146;2024-03-08T10:35:49;23.13;;;13.82;;
84189;SDS011;74321;53.406;8.146;2024-03-08T10:40:52;19.95;;;13.07;;
84189;SDS011;74321;53.406;8.146;2024-03-08T10:46:03;22.65;;;13.20;;
84189;SDS011;74321;53.406;8.146;2024-03-08T10:51:14;18.05;;;10.20;;
84189;SDS011;74321;53.406;8.146;2024-03-08T10:56:17;21.10;;;12.85;;
84189;SDS011;74321;53.406;8.146;2024-03-08T11:01:19;19.48;;;12.20;;
84189;SDS011;74321;53.406;8.146;2024-03-08T11:06:41;25.25;;;14.15;;
84189;SDS011;74321;53.406;8.146;2024-03-08T11:11:47;20.80;;;13.40;;
84189;SDS011;74321;53.406;8.146;2024-03-08T11:16:49;22.15;;;13.95;;
84189;SDS011;74321;53.406;8.146;2024-03-08T11:22:13;21.48;;;12.38;;
84189;SDS011;74321;53.406;8.146;2024-03-08T11:27:28;22.90;;;13.77;;
84189;SDS011;74321;53.406;8.146;2024-03-08T11:32:33;21.77;;;14.10;;
84189;SDS011;74321;53.406;8.146;2024-03-08T11:37:35;21.88;;;13.77;;
84189;SDS011;74321;53.406;8.146;2024-03-08T11:42:37;19.83;;;12.02;;
84189;SDS011;74321;53.406;8.146;2024-03-08T11:47:42;23.85;;;13.93;;
84189;SDS011;74321;53.406;8.146;2024-03-08T11:52:48;21.40;;;14.30;;
84189;SDS011;74321;53.406;8.146;2024-03-08T11:57:58;23.00;;;14.63;;
84189;SDS011;74321;53.406;8.146;2024-03-08T12:03:02;23.65;;;13.75;;
84189;SDS011;74321;53.406;8.146;2024-03-08T12:08:05;22.73;;;14.25;;
84189;SDS011;74321;53.406;8.146;2024-03-08T12:13:09;23.77;;;15.20;;
84189;SDS011;74321;53.406;8.146;2024-03-08T12:18:15;24.00;;;14.88;;
84189;SDS011;74321;53.406;8.146;2024-03-08T12:23:17;23.40;;;15.55;;
84189;SDS011;74321;53.406;8.146;2024-03-08T12:28:20;21.50;;;14.00;;
84189;SDS011;74321;53.406;8.146;2024-03-08T12:38:29;23.52;;;15.13;;
84189;SDS011;74321;53.406;8.146;2024-03-08T12:43:33;24.98;;;15.40;;
84189;SDS011;74321;53.406;8.146;2024-03-08T12:48:35;24.58;;;15.20;;
84189;SDS011;74321;53.406;8.146;2024-03-08T12:53:42;22.90;;;15.52;;
84189;SDS011;74321;53.406;8.146;2024-03-08T12:58:45;24.42;;;14.38;;
84189;SDS011;74321;53.406;8.146;2024-03-08T13:03:48;22.77;;;14.57;;
84189;SDS011;74321;53.406;8.146;2024-03-08T13:08:51;22.20;;;13.88;;
84189;SDS011;74321;53.406;8.146;2024-03-08T13:13:57;22.33;;;13.65;;
84189;SDS011;74321;53.406;8.146;2024-03-08T13:19:04;23.10;;;13.10;;
84189;SDS011;74321;53.406;8.146;2024-03-08T13:24:06;23.52;;;11.20;;
84189;SDS011;74321;53.406;8.146;2024-03-08T13:29:08;19.98;;;13.00;;
84189;SDS011;74321;53.406;8.146;2024-03-08T13:34:10;24.65;;;13.10;;
84189;SDS011;74321;53.406;8.146;2024-03-08T13:39:13;19.52;;;12.30;;
84189;SDS011;74321;53.406;8.146;2024-03-08T13:44:18;22.02;;;12.43;;
84189;SDS011;74321;53.406;8.146;2024-03-08T13:49:20;19.95;;;12.27;;
84189;SDS011;74321;53.406;8.146;2024-03-08T13:54:22;24.70;;;12.65;;
84189;SDS011;74321;53.406;8.146;2024-03-08T13:59:24;20.77;;;12.15;;
84189;SDS011;74321;53.406;8.146;2024-03-08T14:04:30;18.80;;;11.50;;
84189;SDS011;74321;53.406;8.146;2024-03-08T14:09:34;23.50;;;12.77;;
84189;SDS011;74321;53.406;8.146;2024-03-08T14:14:44;25.25;;;11.55;;
84189;SDS011;74321;53.406;8.146;2024-03-08T14:19:46;22.00;;;12.95;;
84189;SDS011;74321;53.406;8.146;2024-03-08T14:24:48;25.45;;;12.75;;
84189;SDS011;74321;53.406;8.146;2024-03-08T14:29:51;20.25;;;11.63;;
84189;SDS011;74321;53.406;8.146;2024-03-08T14:34:53;21.08;;;12.32;;
84189;SDS011;74321;53.406;8.146;2024-03-08T14:39:56;21.70;;;10.93;;
84189;SDS011;74321;53.406;8.146;2024-03-08T14:44:59;20.58;;;11.70;;
84189;SDS011;74321;53.406;8.146;2024-03-08T14:50:01;21.42;;;12.25;;
84189;SDS011;74321;53.406;8.146;2024-03-08T14:55:04;23.38;;;12.27;;
84189;SDS011;74321;53.406;8.146;2024-03-08T15:00:08;26.92;;;13.35;;
84189;SDS011;74321;53.406;8.146;2024-03-08T15:05:18;23.65;;;11.65;;
84189;SDS011;74321;53.406;8.146;2024-03-08T15:10:22;20.60;;;11.32;;
84189;SDS011;74321;53.406;8.146;2024-03-08T15:15:27;22.85;;;11.82;;
84189;SDS011;74321;53.406;8.146;2024-03-08T15:20:31;23.38;;;11.73;;
84189;SDS011;74321;53.406;8.146;2024-03-08T15:25:36;19.58;;;11.23;;
84189;SDS011;74321;53.406;8.146;2024-03-08T15:30:40;24.90;;;11.50;;
84189;SDS011;74321;53.406;8.146;2024-03-08T15:35:48;19.70;;;11.27;;
84189;SDS011;74321;53.406;8.146;2024-03-08T15:40:52;20.77;;;10.45;;
84189;SDS011;74321;53.406;8.146;2024-03-08T15:45:56;20.73;;;10.45;;
84189;SDS011;74321;53.406;8.146;2024-03-08T15:50:59;24.98;;;11.40;;
84189;SDS011;74321;53.406;8.146;2024-03-08T15:56:04;24.10;;;10.25;;
84189;SDS011;74321;53.406;8.146;2024-03-08T16:01:10;23.50;;;11.35;;
84189;SDS011;74321;53.406;8.146;2024-03-08T16:11:17;21.48;;;10.85;;
84189;SDS011;74321;53.406;8.146;2024-03-08T16:16:20;25.42;;;11.43;;
84189;SDS011;74321;53.406;8.146;2024-03-08T16:21:24;24.13;;;11.40;;
84189;SDS011;74321;53.406;8.146;2024-03-08T16:26:27;20.73;;;10.40;;
84189;SDS011;74321;53.406;8.146;2024-03-08T16:31:29;21.23;;;10.05;;
84189;SDS011;74321;53.406;8.146;2024-03-08T16:36:31;21.00;;;10.80;;
84189;SDS011;74321;53.406;8.146;2024-03-08T16:41:33;27.05;;;10.60;;
84189;SDS011;74321;53.406;8.146;2024-03-08T16:46:35;24.58;;;11.15;;
84189;SDS011;74321;53.406;8.146;2024-03-08T16:51:44;23.98;;;11.90;;
84189;SDS011;74321;53.406;8.146;2024-03-08T16:56:46;28.05;;;12.27;;
84189;SDS011;74321;53.406;8.146;2024-03-08T17:01:48;23.10;;;11.57;;
84189;SDS011;74321;53.406;8.146;2024-03-08T17:06:51;22.92;;;11.60;;
84189;SDS011;74321;53.406;8.146;2024-03-08T17:11:55;21.75;;;11.38;;
84189;SDS011;74321;53.406;8.146;2024-03-08T17:16:57;24.00;;;11.35;;
84189;SDS011;74321;53.406;8.146;2024-03-08T17:22:03;24.58;;;10.93;;
84189;SDS011;74321;53.406;8.146;2024-03-08T17:27:05;23.73;;;11.15;;
84189;SDS011;74321;53.406;8.146;2024-03-08T17:32:08;21.63;;;9.88;;
84189;SDS011;74321;53.406;8.146;2024-03-08T17:37:10;22.77;;;10.77;;
84189;SDS011;74321;53.406;8.146;2024-03-08T17:42:12;22.17;;;9.88;;
84189;SDS011;74321;53.406;8.146;2024-03-08T17:47:14;21.60;;;9.85;;
84189;SDS011;74321;53.406;8.146;2024-03-08T17:52:17;22.50;;;10.23;;
84189;SDS011;74321;53.406;8.146;2024-03-08T17:57:19;20.60;;;9.45;;
84189;SDS011;74321;53.406;8.146;2024-03-08T18:02:21;22.58;;;10.18;;
84189;SDS011;74321;53.406;8.146;2024-03-08T18:07:23;20.75;;;9.63;;
84189;SDS011;74321;53.406;8.146;2024-03-08T18:12:25;20.30;;;9.90;;
84189;SDS011;74321;53.406;8.146;2024-03-08T18:17:27;20.17;;;9.75;;
84189;SDS011;74321;53.406;8.146;2024-03-08T18:22:29;19.52;;;9.80;;
84189;SDS011;74321;53.406;8.146;2024-03-08T18:27:31;24.80;;;10.15;;
84189;SDS011;74321;53.406;8.146;2024-03-08T18:32:33;17.52;;;8.80;;
84189;SDS011;74321;53.406;8.146;2024-03-08T18:37:36;26.10;;;11.20;;
84189;SDS011;74321;53.406;8.146;2024-03-08T18:42:39;26.77;;;11.48;;
84189;SDS011;74321;53.406;8.146;2024-03-08T18:47:42;19.95;;;10.18;;
84189;SDS011;74321;53.406;8.146;2024-03-08T18:52:52;30.35;;;12.05;;
84189;SDS011;74321;53.406;8.146;2024-03-08T18:57:55;20.50;;;10.45;;
84189;SDS011;74321;53.406;8.146;2024-03-08T19:03:04;20.58;;;9.13;;
84189;SDS011;74321;53.406;8.146;2024-03-08T19:08:11;20.42;;;9.52;;
84189;SDS011;74321;53.406;8.146;2024-03-08T19:13:18;24.63;;;10.43;;
84189;SDS011;74321;53.406;8.146;2024-03-08T19:18:20;20.80;;;9.48;;
84189;SDS011;74321;53.406;8.146;2024-03-08T19:23:23;23.77;;;10.38;;
84189;SDS011;74321;53.406;8.146;2024-03-08T19:28:25;22.85;;;9.80;;
84189;SDS011;74321;53.406;8.146;2024-03-08T19:33:27;20.83;;;9.60;;
84189;SDS011;74321;53.406;8.146;2024-03-08T19:38:33;23.15;;;9.80;;
84189;SDS011;74321;53.406;8.146;2024-03-08T19:43:35;23.77;;;11.13;;
84189;SDS011;74321;53.406;8.146;2024-03-08T19:48:39;22.17;;;9.20;;
84189;SDS011;74321;53.406;8.146;2024-03-08T19:53:44;26.33;;;10.75;;
84189;SDS011;74321;53.406;8.146;2024-03-08T19:58:46;19.58;;;10.15;;
84189;SDS011;74321;53.406;8.146;2024-03-08T20:03:49;22.63;;;9.50;;
84189;SDS011;74321;53.406;8.146;2024-03-08T20:08:51;19.63;;;9.32;;
84189;SDS011;74321;53.406;8.146;2024-03-08T20:13:54;22.52;;;9.75;;
84189;SDS011;74321;53.406;8.146;2024-03-08T20:18:57;21.38;;;10.15;;
84189;SDS011;74321;53.406;8.146;2024-03-08T20:24:04;23.98;;;9.95;;
84189;SDS011;74321;53.406;8.146;2024-03-08T20:29:09;23.58;;;10.52;;
84189;SDS011;74321;53.406;8.146;2024-03-08T20:34:13;26.70;;;11.90;;
84189;SDS011;74321;53.406;8.146;2024-03-08T20:39:16;26.70;;;11.40;;
84189;SDS011;74321;53.406;8.146;2024-03-08T20:44:18;23.90;;;10.43;;
84189;SDS011;74321;53.406;8.146;2024-03-08T20:49:20;26.23;;;10.85;;
84189;SDS011;74321;53.406;8.146;2024-03-08T20:54:22;27.40;;;11.73;;
84189;SDS011;74321;53.406;8.146;2024-03-08T20:59:24;34.00;;;14.30;;
84189;SDS011;74321;53.406;8.146;2024-03-08T21:04:26;42.70;;;15.45;;
84189;SDS011;74321;53.406;8.146;2024-03-08T21:09:30;35.38;;;14.70;;
84189;SDS011;74321;53.406;8.146;2024-03-08T21:14:32;25.40;;;10.38;;
84189;SDS011;74321;53.406;8.146;2024-03-08T21:19:35;25.50;;;11.13;;
84189;SDS011;74321;53.406;8.146;2024-03-08T21:24:37;25.63;;;11.95;;
84189;SDS011;74321;53.406;8.146;2024-03-08T21:29:39;20.98;;;10.15;;
84189;SDS011;74321;53.406;8.146;2024-03-08T21:34:41;22.70;;;10.27;;
84189;SDS011;74321;53.406;8.146;2024-03-08T21:39:43;25.15;;;10.95;;
84189;SDS011;74321;53.406;8.146;2024-03-08T21:44:46;25.10;;;10.45;;
84189;SDS011;74321;53.406;8.146;2024-03-08T21:49:48;28.13;;;11.45;;
84189;SDS011;74321;53.406;8.146;2024-03-08T21:54:52;29.52;;;12.02;;
84189;SDS011;74321;53.406;8.146;2024-03-08T21:59:54;26.65;;;11.38;;
84189;SDS011;74321;53.406;8.146;2024-03-08T22:04:57;26.48;;;11.48;;
84189;SDS011;74321;53.406;8.146;2024-03-08T22:09:59;27.77;;;12.55;;
84189;SDS011;74321;53.406;8.146;2024-03-08T22:15:01;27.23;;;11.65;;
84189;SDS011;74321;53.406;8.146;2024-03-08T22:20:03;32.63;;;13.13;;
84189;SDS011;74321;53.406;8.146;2024-03-08T22:25:13;24.95;;;11.07;;
84189;SDS011;74321;53.406;8.146;2024-03-08T22:35:21;20.25;;;9.63;;
84189;SDS011;74321;53.406;8.146;2024-03-08T22:40:25;25.77;;;11.10;;
84189;SDS011;74321;53.406;8.146;2024-03-08T22:45:29;25.50;;;11.40;;
84189;SDS011;74321;53.406;8.146;2024-03-08T22:50:34;26.58;;;10.77;;
84189;SDS011;74321;53.406;8.146;2024-03-08T22:55:39;25.88;;;11.10;;
84189;SDS011;74321;53.406;8.146;2024-03-08T23:00:42;24.42;;;10.93;;
84189;SDS011;74321;53.406;8.146;2024-03-08T23:05:46;25.55;;;11.15;;
84189;SDS011;74321;53.406;8.146;2024-03-08T23:10:48;24.27;;;10.82;;
84189;SDS011;74321;53.406;8.146;2024-03-08T23:15:51;25.98;;;10.90;;
84189;SDS011;74321;53.406;8.146;2024-03-08T23:20:54;28.20;;;11.45;;
84189;SDS011;74321;53.406;8.146;2024-03-08T23:25:57;27.00;;;11.27;;
84189;SDS011;74321;53.406;8.146;2024-03-08T23:30:59;21.55;;;10.70;;
84189;SDS011;74321;53.406;8.146;2024-03-08T23:36:02;29.33;;;11.30;;
84189;SDS011;74321;53.406;8.146;2024-03-08T23:41:05;29.83;;;10.30;;
84189;SDS011;74321;53.406;8.146;2024-03-08T23:46:07;26.10;;;11.52;;
84189;SDS011;74321;53.406;8.146;2024-03-08T23:51:09;26.60;;;11.05;;
84189;SDS011;74321;53.406;8.146;2024-03-08T23:56:12;28.13;;;11.60;;
